Time;durP1;ratioP1;P1;durP2;ratioP2;P2;SDS_P1;SDS_P2;PMS_P1;PMS_P2;Temp;Humidity;BMP_temperature;BMP_pressure;BME280_temperature;BME280_humidity;BME280_pressure;Samples;Min_cycle;Max_cycle;Signal;HPM_P1;HPM_P2
2021/09/08 00:01:36;;;;;;;10.45;6.55;;;;;;;10.15;74.86;101532.19;1687977;83;25839;-78
2021/09/08 00:04:03;;;;;;;11.48;6.65;;;;;;;10.12;74.98;101529.33;1698692;83;25944;-78
2021/09/08 00:06:30;;;;;;;12.68;6.70;;;;;;;10.12;74.97;101529.82;1681592;83;28181;-77
2021/09/08 00:08:57;;;;;;;14.35;6.80;;;;;;;10.08;74.79;101537.31;1672565;82;25675;-78
2021/09/08 00:11:24;;;;;;;9.13;6.75;;;;;;;10.06;74.78;101535.30;1688888;83;25833;-78
2021/09/08 00:13:51;;;;;;;11.95;6.42;;;;;;;9.98;74.62;101529.42;1688963;82;25762;-77
2021/09/08 00:16:18;;;;;;;11.57;5.95;;;;;;;9.93;74.66;101528.20;1688123;83;25783;-78
2021/09/08 00:18:45;;;;;;;10.35;6.03;;;;;;;9.87;74.55;101527.02;1668989;82;27498;-78
2021/09/08 00:21:12;;;;;;;10.30;6.45;;;;;;;9.80;74.46;101527.31;1664142;83;25926;-77
2021/09/08 00:23:39;;;;;;;12.30;5.92;;;;;;;9.77;74.64;101528.14;1714116;82;25851;-78
2021/09/08 00:26:06;;;;;;;9.15;6.60;;;;;;;9.72;74.79;101538.46;1710584;82;26433;-78
2021/09/08 00:28:33;;;;;;;10.35;6.22;;;;;;;9.68;74.86;101534.43;1642030;83;25821;-77
2021/09/08 00:31:00;;;;;;;8.20;5.78;;;;;;;9.65;75.07;101531.57;1690972;82;27677;-78
2021/09/08 00:33:28;;;;;;;10.93;6.17;;;;;;;9.62;75.03;101541.76;1727611;82;26606;-78
2021/09/08 00:35:55;;;;;;;11.40;6.70;;;;;;;9.59;75.19;101536.70;1707131;82;25911;-78
2021/09/08 00:38:22;;;;;;;13.68;7.05;;;;;;;9.56;75.39;101540.53;1680595;82;26066;-78
2021/09/08 00:40:49;;;;;;;13.83;7.33;;;;;;;9.58;75.57;101538.53;1711571;82;25825;-78
2021/09/08 00:43:16;;;;;;;7.30;6.12;;;;;;;9.59;75.69;101541.56;1746828;81;27546;-77
2021/09/08 00:45:49;;;;;;;13.40;6.65;;;;;;;9.59;75.80;101538.05;1685798;83;25855;-78
2021/09/08 00:48:16;;;;;;;11.18;5.97;;;;;;;9.56;75.58;101541.87;1734549;81;25941;-77
2021/09/08 00:50:43;;;;;;;12.25;6.42;;;;;;;9.53;75.69;101539.53;1748517;80;26633;-78
2021/09/08 00:53:12;;;;;;;10.10;6.17;;;;;;;9.52;75.75;101534.31;1698034;82;25819;-77
2021/09/08 00:55:40;;;;;;;9.65;6.20;;;;;;;9.47;75.75;101536.15;1695733;82;28193;-77
2021/09/08 00:58:08;;;;;;;8.88;6.28;;;;;;;9.47;75.62;101537.48;1686365;82;25842;-77
2021/09/08 01:00:36;;;;;;;9.60;6.22;;;;;;;9.41;75.29;101530.06;1720154;83;25830;-78
2021/09/08 01:03:05;;;;;;;9.63;6.83;;;;;;;9.37;75.24;101534.05;1712195;83;25726;-78
2021/09/08 01:05:33;;;;;;;10.55;6.05;;;;;;;9.34;75.40;101535.72;1684296;82;26027;-78
2021/09/08 01:08:00;;;;;;;13.35;6.50;;;;;;;9.31;75.33;101534.19;1681377;82;28157;-77
2021/09/08 01:10:29;;;;;;;12.60;6.97;;;;;;;9.27;75.33;101530.15;1704430;83;25771;-78
2021/09/08 01:12:57;;;;;;;12.33;7.80;;;;;;;9.27;75.63;101527.48;1731938;82;25800;-78
2021/09/08 01:15:26;;;;;;;11.83;6.55;;;;;;;9.27;76.02;101527.48;1695270;82;26596;-77
2021/09/08 01:17:55;;;;;;;10.53;6.83;;;;;;;9.25;75.99;101524.61;1722873;82;25760;-78
2021/09/08 01:20:22;;;;;;;15.50;6.67;;;;;;;9.24;76.07;101530.45;1742736;81;27500;-77
2021/09/08 01:22:53;;;;;;;11.78;7.72;;;;;;;9.24;76.00;101526.44;1704892;83;25762;-77
2021/09/08 01:25:23;;;;;;;10.15;7.17;;;;;;;9.24;76.08;101520.25;1690715;82;25958;-77
2021/09/08 01:27:53;;;;;;;11.48;6.95;;;;;;;9.25;76.13;101523.28;1710386;82;25976;-78
2021/09/08 01:30:25;;;;;;;14.90;7.85;;;;;;;9.26;76.25;101522.27;1728052;82;25950;-77
2021/09/08 01:32:54;;;;;;;14.10;8.98;;;;;;;9.28;76.45;101521.64;1726463;82;27471;-78
2021/09/08 01:35:21;;;;;;;12.10;8.15;;;;;;;9.27;76.90;101518.13;1666926;82;25801;-77
2021/09/08 01:37:49;;;;;;;14.87;8.40;;;;;;;9.27;77.13;101526.62;1677121;82;25859;-77
2021/09/08 01:40:18;;;;;;;13.50;8.33;;;;;;;9.24;76.97;101525.10;1728090;82;26212;-78
2021/09/08 01:42:46;;;;;;;12.28;8.45;;;;;;;9.24;76.85;101519.75;1726850;82;26525;-77
2021/09/08 01:45:17;;;;;;;11.83;8.65;;;;;;;9.23;76.82;101522.10;1676571;82;28228;-77
2021/09/08 01:47:45;;;;;;;13.25;8.80;;;;;;;9.20;76.86;101521.55;1695441;83;25799;-77
2021/09/08 01:50:12;;;;;;;14.50;8.95;;;;;;;9.19;76.95;101519.41;1726584;82;25835;-78
2021/09/08 01:52:39;;;;;;;15.48;9.10;;;;;;;9.19;76.94;101523.41;1726799;82;26374;-77
2021/09/08 01:55:09;;;;;;;17.32;9.58;;;;;;;9.19;76.97;101522.56;1690275;82;26598;-78
2021/09/08 01:57:36;;;;;;;14.05;8.78;;;;;;;9.19;77.27;101524.75;1654569;82;27435;-78
2021/09/08 02:00:05;;;;;;;15.55;8.45;;;;;;;9.18;77.46;101529.73;1727595;82;25860;-77
2021/09/08 02:02:35;;;;;;;11.88;8.18;;;;;;;9.15;77.39;101527.36;1723113;82;25817;-78
2021/09/08 02:05:02;;;;;;;12.93;7.85;;;;;;;9.11;77.00;101522.52;1670479;82;25840;-77
2021/09/08 02:07:29;;;;;;;13.93;8.05;;;;;;;9.07;76.90;101528.64;1642789;85;25945;-77
2021/09/08 02:09:57;;;;;;;13.70;8.58;;;;;;;9.04;77.29;101527.63;1684957;82;27488;-77
2021/09/08 02:12:24;;;;;;;15.18;8.53;;;;;;;9.01;77.63;101530.59;1710803;82;26637;-78
2021/09/08 02:14:51;;;;;;;12.45;8.00;;;;;;;9.02;77.63;101530.95;1663632;82;25773;-78
2021/09/08 02:17:18;;;;;;;13.55;8.00;;;;;;;9.00;77.33;101530.23;1658371;82;26159;-78
2021/09/08 02:19:45;;;;;;;14.75;8.63;;;;;;;8.98;77.22;101528.22;1680632;82;25853;-77
2021/09/08 02:22:12;;;;;;;13.18;7.42;;;;;;;8.93;76.85;101519.84;1700801;82;27613;-78
2021/09/08 02:24:39;;;;;;;10.82;7.12;;;;;;;8.87;76.72;101520.95;1683939;80;25976;-77
2021/09/08 02:27:06;;;;;;;12.43;8.43;;;;;;;8.82;76.78;101521.41;1734410;80;25854;-78
2021/09/08 02:29:33;;;;;;;12.28;7.87;;;;;;;8.76;76.72;101520.69;1761763;80;25782;-77
2021/09/08 02:32:00;;;;;;;14.78;7.85;;;;;;;8.73;76.98;101514.80;1750631;79;25747;-77
2021/09/08 02:34:27;;;;;;;12.40;7.75;;;;;;;8.72;77.12;101516.65;1683051;82;27611;-78
2021/09/08 02:36:54;;;;;;;13.48;7.40;;;;;;;8.72;77.28;101519.32;1707511;80;25788;-78
2021/09/08 02:39:21;;;;;;;13.03;7.62;;;;;;;8.72;77.35;101519.32;1776063;79;26533;-78
2021/09/08 02:41:48;;;;;;;9.30;6.97;;;;;;;8.71;77.18;101519.45;1749016;80;25793;-78
2021/09/08 02:44:15;;;;;;;8.90;7.00;;;;;;;8.68;76.88;101519.77;1729333;80;26486;-78
2021/09/08 02:46:42;;;;;;;11.35;8.33;;;;;;;8.62;76.82;101514.52;1697618;80;27531;-77
2021/09/08 02:49:11;;;;;;;13.03;7.00;;;;;;;8.59;76.85;101519.34;1761972;80;25284;-78
2021/09/08 02:51:38;;;;;;;13.08;6.80;;;;;;;8.56;76.85;101519.14;1755166;80;25816;-77
2021/09/08 02:54:05;;;;;;;10.72;6.65;;;;;;;8.49;76.70;101528.73;1683554;80;25809;-77
2021/09/08 02:56:32;;;;;;;10.45;6.05;;;;;;;8.45;76.59;101523.36;1754240;80;25958;-78
2021/09/08 02:58:59;;;;;;;9.85;6.75;;;;;;;8.42;76.59;101523.67;1734639;80;27607;-78
2021/09/08 03:01:26;;;;;;;13.88;6.40;;;;;;;8.36;76.50;101524.28;1751218;79;25706;-76
2021/09/08 03:03:53;;;;;;;9.95;6.53;;;;;;;8.32;76.64;101531.73;1730196;79;25886;-78
2021/09/08 03:06:20;;;;;;;11.50;6.87;;;;;;;8.30;76.55;101529.70;1697065;82;26576;-77
2021/09/08 03:08:47;;;;;;;10.70;6.28;;;;;;;8.27;76.57;101530.02;1756866;80;25861;-77
2021/09/08 03:11:14;;;;;;;10.78;6.75;;;;;;;8.26;76.60;101530.15;1756580;80;27574;-78
2021/09/08 03:13:41;;;;;;;18.20;10.35;;;;;;;8.23;76.63;101529.91;1720151;80;26594;-78
2021/09/08 03:16:08;;;;;;;24.12;14.98;;;;;;;8.25;76.94;101525.33;1720957;80;25826;-78
2021/09/08 03:18:35;;;;;;;16.37;9.88;;;;;;;8.27;76.91;101522.02;1757080;80;25793;-77
2021/09/08 03:21:02;;;;;;;10.20;7.40;;;;;;;8.26;76.80;101518.98;1752736;80;26558;-78
2021/09/08 03:23:32;;;;;;;9.00;7.25;;;;;;;8.23;76.86;101526.44;1707417;82;28199;-78
2021/09/08 03:25:58;;;;;;;10.48;6.30;;;;;;;8.19;76.74;101531.20;1716759;81;25977;-78
2021/09/08 03:28:25;;;;;;;12.07;5.70;;;;;;;8.13;76.68;101530.47;1729571;82;26409;-78
2021/09/08 03:30:52;;;;;;;11.85;6.80;;;;;;;8.07;76.73;101528.89;1705529;83;25823;-77
2021/09/08 03:33:20;;;;;;;9.10;6.30;;;;;;;8.02;76.67;101529.33;1701139;82;26595;-78
2021/09/08 03:35:47;;;;;;;9.38;5.92;;;;;;;7.99;76.76;101528.80;1658483;83;28350;-77
2021/09/08 03:38:14;;;;;;;9.65;5.35;;;;;;;7.92;76.75;101527.69;1707254;82;25789;-78
2021/09/08 03:40:41;;;;;;;8.83;5.55;;;;;;;7.86;76.83;101526.47;1730616;82;26544;-77
2021/09/08 03:43:08;;;;;;;9.70;5.65;;;;;;;7.84;76.83;101523.59;1691644;82;25801;-77
2021/09/08 03:45:35;;;;;;;8.35;5.65;;;;;;;7.80;76.84;101523.05;1740274;80;26289;-78
2021/09/08 03:48:03;;;;;;;11.15;6.05;;;;;;;7.74;76.89;101524.46;1765413;80;28204;-78
2021/09/08 03:50:31;;;;;;;11.12;6.95;;;;;;;7.69;76.83;101528.08;1748189;80;26548;-77
2021/09/08 03:52:58;;;;;;;13.20;6.80;;;;;;;7.66;77.18;101528.84;1752735;80;25784;-77
2021/09/08 03:55:25;;;;;;;8.78;6.00;;;;;;;7.67;77.32;101525.20;1703067;80;26048;-77
2021/09/08 03:57:52;;;;;;;9.68;6.15;;;;;;;7.67;77.28;101519.39;1752893;80;26039;-77
2021/09/08 04:00:19;;;;;;;8.75;6.10;;;;;;;7.66;77.30;101516.36;1753951;80;28206;-77
2021/09/08 04:02:46;;;;;;;10.63;6.50;;;;;;;7.66;77.34;101516.84;1709628;80;25892;-77
2021/09/08 04:05:13;;;;;;;8.63;6.45;;;;;;;7.65;77.46;101521.84;1756825;79;25333;-77
2021/09/08 04:07:40;;;;;;;12.68;6.87;;;;;;;7.65;77.62;101520.03;1762594;80;26419;-77
2021/09/08 04:10:08;;;;;;;8.50;6.08;;;;;;;7.67;77.75;101534.05;1739352;80;25852;-77
2021/09/08 04:12:35;;;;;;;14.73;7.05;;;;;;;7.71;77.95;101537.26;1693489;80;27524;-77
2021/09/08 04:15:02;;;;;;;11.15;6.00;;;;;;;7.73;77.91;101529.47;1786683;79;26031;-77
2021/09/08 04:17:29;;;;;;;13.30;6.87;;;;;;;7.74;77.87;101522.31;1761216;80;25838;-77
2021/09/08 04:19:56;;;;;;;11.33;5.87;;;;;;;7.73;77.70;101525.95;1763575;80;25707;-77
2021/09/08 04:22:23;;;;;;;10.50;6.50;;;;;;;7.72;77.63;101519.77;1720565;80;25916;-77
2021/09/08 04:24:50;;;;;;;12.85;7.33;;;;;;;7.69;77.55;101518.75;1776666;79;27553;-77
2021/09/08 04:27:17;;;;;;;9.98;7.53;;;;;;;7.70;77.92;101517.74;1726943;80;25740;-77
2021/09/08 04:29:44;;;;;;;12.70;7.95;;;;;;;7.74;78.27;101511.13;1779978;79;25820;-77
2021/09/08 04:32:11;;;;;;;11.20;7.28;;;;;;;7.79;78.45;101516.88;1734741;80;26219;-77
2021/09/08 04:34:38;;;;;;;11.88;7.92;;;;;;;7.82;78.26;101517.08;1763386;79;25716;-77
2021/09/08 04:37:05;;;;;;;15.18;8.65;;;;;;;7.82;78.32;101517.08;1784780;79;28311;-77
2021/09/08 04:39:32;;;;;;;16.67;9.03;;;;;;;7.82;78.33;101523.75;1691857;80;26132;-77
2021/09/08 04:41:59;;;;;;;18.15;9.48;;;;;;;7.84;78.46;101517.77;1778857;79;25808;-78
2021/09/08 04:44:27;;;;;;;18.85;10.03;;;;;;;7.87;78.69;101521.45;1752728;79;25578;-77
2021/09/08 04:46:54;;;;;;;17.85;9.30;;;;;;;7.91;78.89;101518.02;1734820;80;25757;-77
2021/09/08 04:49:21;;;;;;;14.33;9.35;;;;;;;7.94;78.93;101520.38;1692627;80;27483;-77
2021/09/08 04:51:48;;;;;;;18.82;10.60;;;;;;;7.98;79.07;101517.76;1778501;79;25995;-77
2021/09/08 04:54:15;;;;;;;18.52;11.80;;;;;;;8.00;79.15;101519.81;1752848;80;25798;-77
2021/09/08 04:56:42;;;;;;;22.87;12.15;;;;;;;8.01;79.35;101519.66;1743110;80;25943;-77
2021/09/08 04:59:09;;;;;;;19.92;10.80;;;;;;;8.04;79.37;101520.68;1784085;79;25889;-77
2021/09/08 05:01:36;;;;;;;13.40;8.73;;;;;;;8.08;79.52;101523.91;1715957;80;27449;-77
2021/09/08 05:04:03;;;;;;;20.37;11.15;;;;;;;8.09;79.56;101522.42;1760241;80;25983;-77
2021/09/08 05:06:30;;;;;;;20.88;11.25;;;;;;;8.12;79.74;101523.47;1740054;80;25888;-77
2021/09/08 05:08:57;;;;;;;18.70;10.45;;;;;;;8.13;80.17;101515.80;1716198;79;25764;-77
2021/09/08 05:11:24;;;;;;;15.50;9.98;;;;;;;8.13;80.33;101518.46;1761291;79;25772;-77
2021/09/08 05:13:51;;;;;;;16.67;10.25;;;;;;;8.13;80.68;101519.80;1723987;81;27908;-77
2021/09/08 05:16:19;;;;;;;17.82;10.10;;;;;;;8.12;80.49;101518.63;1735944;80;25825;-77
2021/09/08 05:18:46;;;;;;;14.18;9.88;;;;;;;8.18;80.79;101530.03;1687903;80;25863;-77
2021/09/08 05:21:13;;;;;;;16.65;10.93;;;;;;;8.22;80.82;101530.08;1725355;80;25829;-77
2021/09/08 05:23:40;;;;;;;21.25;10.03;;;;;;;8.30;81.04;101528.37;1757118;80;25834;-77
2021/09/08 05:26:07;;;;;;;13.72;9.80;;;;;;;8.38;81.59;101528.45;1727820;80;27518;-77
2021/09/08 05:28:34;;;;;;;17.75;11.12;;;;;;;8.42;81.86;101529.02;1711509;80;25714;-77
2021/09/08 05:31:01;;;;;;;17.73;11.65;;;;;;;8.48;82.13;101529.74;1765886;79;25752;-77
2021/09/08 05:33:28;;;;;;;14.87;9.78;;;;;;;8.54;82.45;101532.66;1747541;80;25876;-77
2021/09/08 05:35:55;;;;;;;19.75;11.97;;;;;;;8.63;82.46;101530.06;1710754;80;26601;-77
2021/09/08 05:38:22;;;;;;;19.40;10.25;;;;;;;8.72;82.74;101528.67;1706838;80;27601;-77
2021/09/08 05:40:50;;;;;;;19.57;12.45;;;;;;;8.83;83.30;101536.95;1705137;82;25752;-77
2021/09/08 05:43:17;;;;;;;20.65;12.53;;;;;;;8.91;83.64;101533.86;1749090;80;25782;-77
2021/09/08 05:45:44;;;;;;;19.92;12.13;;;;;;;9.03;83.80;101535.29;1780938;79;25827;-77
2021/09/08 05:48:11;;;;;;;19.32;11.12;;;;;;;9.16;84.16;101546.92;1736073;80;25810;-77
2021/09/08 05:50:38;;;;;;;22.87;13.03;;;;;;;9.27;84.31;101541.33;1730660;81;27632;-77
2021/09/08 05:53:06;;;;;;;26.23;14.65;;;;;;;9.40;84.53;101547.61;1725675;80;25847;-77
2021/09/08 05:55:33;;;;;;;25.20;17.30;;;;;;;9.53;85.22;101540.86;1783301;79;25791;-77
2021/09/08 05:58:00;;;;;;;35.68;20.88;;;;;;;9.69;85.74;101544.97;1738255;80;25984;-77
2021/09/08 06:00:27;;;;;;;32.78;20.52;;;;;;;9.84;86.11;101538.03;1703403;80;26609;-78
2021/09/08 06:02:54;;;;;;;28.50;20.82;;;;;;;10.02;86.64;101539.30;1747368;80;27518;-77
2021/09/08 06:05:22;;;;;;;34.58;21.65;;;;;;;10.18;86.94;101539.39;1723048;80;25984;-77
2021/09/08 06:07:49;;;;;;;37.25;22.95;;;;;;;10.34;87.42;101534.60;1766529;79;26446;-77
2021/09/08 06:10:20;;;;;;;33.55;22.90;;;;;;;10.48;87.54;101535.30;1777708;79;26153;-77
2021/09/08 06:12:48;;;;;;;27.62;18.82;;;;;;;10.63;87.67;101533.17;1749301;80;25803;-77
2021/09/08 06:15:17;;;;;;;33.95;20.50;;;;;;;10.79;87.52;101531.87;1763830;79;27611;-78
2021/09/08 06:17:44;;;;;;;31.42;20.72;;;;;;;10.95;87.87;101534.23;1736216;80;25980;-77
2021/09/08 06:20:11;;;;;;;34.90;20.88;;;;;;;11.10;88.06;101531.23;1783734;79;26497;-78
2021/09/08 06:22:39;;;;;;;27.25;19.27;;;;;;;11.24;87.74;101534.08;1755784;80;25786;-77
2021/09/08 06:25:07;;;;;;;33.73;19.40;;;;;;;11.38;87.73;101537.90;1723857;80;25799;-77
2021/09/08 06:27:35;;;;;;;30.25;19.82;;;;;;;11.52;87.82;101531.37;1697693;83;27487;-77
2021/09/08 06:30:02;;;;;;;34.08;21.85;;;;;;;11.66;88.24;101525.79;1672850;83;26658;-77
2021/09/08 06:32:29;;;;;;;29.72;19.35;;;;;;;11.82;88.17;101522.27;1711160;83;25812;-78
2021/09/08 06:34:56;;;;;;;30.05;20.30;;;;;;;11.95;88.25;101518.04;1719249;82;25595;-77
2021/09/08 06:37:23;;;;;;;31.20;19.65;;;;;;;12.09;88.15;101522.67;1662383;83;26133;-77
2021/09/08 06:39:50;;;;;;;27.65;18.65;;;;;;;12.23;87.84;101521.11;1696015;83;28262;-77
2021/09/08 06:42:17;;;;;;;28.77;18.65;;;;;;;12.37;87.87;101527.92;1720191;83;25822;-78
2021/09/08 06:44:44;;;;;;;27.30;16.93;;;;;;;12.53;87.07;101526.16;1720040;81;25908;-77
2021/09/08 06:47:11;;;;;;;21.97;15.85;;;;;;;12.66;86.23;101532.61;1684814;83;25893;-78
2021/09/08 06:49:38;;;;;;;27.20;15.75;;;;;;;12.78;86.39;101524.98;1673509;83;26427;-78
2021/09/08 06:52:05;;;;;;;34.13;18.27;;;;;;;12.89;85.91;101526.77;1720601;82;27523;-78
2021/09/08 06:54:32;;;;;;;24.70;17.23;;;;;;;13.01;85.47;101524.47;1651054;83;26035;-77
2021/09/08 06:56:59;;;;;;;25.72;17.00;;;;;;;13.13;85.66;101527.08;1696731;83;25818;-78
2021/09/08 06:59:26;;;;;;;30.45;17.98;;;;;;;13.26;86.07;101524.63;1675364;83;25778;-78
2021/09/08 07:01:53;;;;;;;28.90;19.15;;;;;;;13.36;85.06;101522.53;1675066;83;25770;-78
2021/09/08 07:04:20;;;;;;;25.48;17.27;;;;;;;13.46;84.75;101525.80;1695443;83;27947;-78
2021/09/08 07:06:47;;;;;;;29.60;19.20;;;;;;;13.56;84.61;101529.05;1666584;83;26038;-78
2021/09/08 07:09:14;;;;;;;25.15;17.50;;;;;;;13.67;84.67;101523.72;1696425;83;25842;-77
2021/09/08 07:11:41;;;;;;;29.95;19.20;;;;;;;13.80;84.41;101528.80;1721510;83;26085;-77
2021/09/08 07:14:08;;;;;;;32.20;18.37;;;;;;;13.92;84.99;101524.61;1695721;83;25747;-78
2021/09/08 07:16:34;;;;;;;26.82;17.42;;;;;;;14.05;84.77;101525.84;1663245;83;28283;-77
2021/09/08 07:19:01;;;;;;;28.12;17.23;;;;;;;14.17;85.03;101529.22;1672273;83;25912;-78
2021/09/08 07:21:27;;;;;;;29.40;15.88;;;;;;;14.29;84.89;101530.94;1672293;83;25983;-78
2021/09/08 07:23:54;;;;;;;30.82;16.60;;;;;;;14.39;84.68;101524.22;1664829;81;25858;-77
2021/09/08 07:26:21;;;;;;;29.35;17.25;;;;;;;14.51;84.87;101532.67;1700220;82;25950;-78
2021/09/08 07:28:47;;;;;;;24.63;15.90;;;;;;;14.63;84.50;101528.44;1658200;82;27486;-78
2021/09/08 07:31:14;;;;;;;21.68;15.43;;;;;;;14.77;85.31;101533.48;1722986;82;25750;-78
2021/09/08 07:33:41;;;;;;;24.18;15.28;;;;;;;14.89;85.06;101532.77;1723444;81;26506;-78
2021/09/08 07:36:08;;;;;;;28.47;15.98;;;;;;;15.03;84.84;101534.59;1652894;83;25835;-78
2021/09/08 07:38:35;;;;;;;23.07;14.90;;;;;;;15.14;84.61;101534.05;1724035;82;25837;-78
2021/09/08 07:41:02;;;;;;;27.70;15.23;;;;;;;15.24;84.17;101529.69;1727661;82;28150;-78
2021/09/08 07:43:29;;;;;;;22.52;15.85;;;;;;;15.33;83.96;101532.58;1708294;83;25850;-78
2021/09/08 07:45:55;;;;;;;22.52;15.28;;;;;;;15.45;83.71;101525.64;1649892;82;26511;-78
2021/09/08 07:48:23;;;;;;;22.77;15.40;;;;;;;15.55;83.40;101532.03;1706746;82;26532;-78
2021/09/08 07:50:50;;;;;;;23.12;15.25;;;;;;;15.64;82.84;101524.10;1732749;82;26571;-78
2021/09/08 07:53:16;;;;;;;25.00;15.15;;;;;;;15.75;82.87;101531.66;1704877;82;27447;-78
2021/09/08 07:55:43;;;;;;;29.57;15.28;;;;;;;15.85;82.34;101533.48;1712599;82;25835;-78
2021/09/08 07:58:10;;;;;;;19.77;13.18;;;;;;;15.95;82.74;101532.09;1683447;82;26107;-78
2021/09/08 08:00:37;;;;;;;19.92;14.35;;;;;;;16.07;81.94;101533.73;1732096;82;26125;-78
2021/09/08 08:03:04;;;;;;;20.92;13.90;;;;;;;16.16;81.74;101537.44;1683857;82;26602;-78
2021/09/08 08:05:32;;;;;;;20.70;14.15;;;;;;;16.27;81.71;101541.44;1679437;82;27406;-78
2021/09/08 08:08:00;;;;;;;24.10;13.28;;;;;;;16.38;81.78;101541.38;1731424;82;25860;-77
2021/09/08 08:10:27;;;;;;;22.30;13.18;;;;;;;16.46;81.15;101537.98;1731618;82;26221;-77
2021/09/08 08:12:54;;;;;;;25.43;13.55;;;;;;;16.57;81.31;101531.19;1652103;83;25707;-78
2021/09/08 08:15:21;;;;;;;17.55;13.05;;;;;;;16.68;81.14;101533.30;1712360;82;25811;-78
2021/09/08 08:17:49;;;;;;;20.20;12.78;;;;;;;16.76;80.61;101534.47;1736590;82;27616;-77
2021/09/08 08:20:18;;;;;;;20.68;11.75;;;;;;;16.85;80.27;101530.53;1727605;82;25773;-78
2021/09/08 08:22:46;;;;;;;22.85;13.15;;;;;;;16.94;80.02;101531.48;1672893;83;25881;-78
2021/09/08 08:25:18;;;;;;;21.65;12.55;;;;;;;17.05;79.57;101535.96;1715995;80;26134;-78
2021/09/08 08:27:46;;;;;;;18.77;12.05;;;;;;;17.16;79.91;101529.94;1749896;81;25846;-78
2021/09/08 08:30:16;;;;;;;20.05;12.65;;;;;;;17.28;79.84;101531.81;1731534;82;27460;-78
2021/09/08 08:32:43;;;;;;;21.35;12.25;;;;;;;17.39;79.11;101540.67;1703266;82;26572;-78
2021/09/08 08:35:10;;;;;;;20.23;10.65;;;;;;;17.48;77.80;101530.47;1704088;82;25906;-78
2021/09/08 08:37:37;;;;;;;23.02;11.00;;;;;;;17.59;77.80;101533.42;1727025;82;26678;-77
2021/09/08 08:40:07;;;;;;;18.12;11.75;;;;;;;17.70;77.55;101538.72;1731083;82;25721;-78
2021/09/08 08:42:34;;;;;;;17.25;12.20;;;;;;;17.79;76.84;101532.05;1684474;82;28179;-78
2021/09/08 08:45:01;;;;;;;19.87;11.93;;;;;;;17.87;76.79;101531.81;1722702;81;26594;-78
2021/09/08 08:47:28;;;;;;;18.45;12.00;;;;;;;17.99;76.72;101538.24;1727522;82;25728;-78
2021/09/08 08:49:55;;;;;;;20.30;12.53;;;;;;;18.10;77.00;101534.87;1727936;82;25711;-78
2021/09/08 08:52:22;;;;;;;22.20;12.93;;;;;;;18.20;77.10;101535.77;1652051;83;25837;-78
2021/09/08 08:54:49;;;;;;;18.48;12.05;;;;;;;18.30;76.69;101534.81;1699368;82;26999;-78
2021/09/08 08:57:16;;;;;;;16.65;12.63;;;;;;;18.38;76.18;101541.34;1730739;81;25837;-78
2021/09/08 08:59:49;;;;;;;20.92;12.18;;;;;;;18.48;75.52;101538.23;1732451;82;25297;-78
2021/09/08 09:02:23;;;;;;;18.42;11.95;;;;;;;18.57;75.57;101540.45;1677388;82;26043;-77
2021/09/08 09:04:53;;;;;;;16.30;11.25;;;;;;;18.67;75.61;101538.66;1654400;81;26163;-78
2021/09/08 09:07:35;;;;;;;15.58;10.90;;;;;;;18.77;75.22;101533.58;1730506;82;28242;-78
2021/09/08 09:10:13;;;;;;;14.55;8.80;;;;;;;18.90;74.38;101533.50;1702281;82;25608;-78
2021/09/08 09:12:43;;;;;;;17.50;8.53;;;;;;;19.01;72.84;101532.25;1662655;83;25887;-79
2021/09/08 09:15:15;;;;;;;12.07;8.17;;;;;;;19.13;71.57;101530.52;1659478;82;26103;-79
2021/09/08 09:17:43;;;;;;;13.30;8.43;;;;;;;19.22;70.43;101537.88;1702412;83;25889;-79
2021/09/08 09:20:13;;;;;;;19.45;8.85;;;;;;;19.30;69.94;101532.16;1731396;82;27516;-79
2021/09/08 09:22:47;;;;;;;13.43;9.20;;;;;;;19.37;68.97;101530.27;1667743;82;34925;-78
2021/09/08 09:25:22;;;;;;;13.30;9.03;;;;;;;19.44;69.20;101530.21;1685653;82;25818;-79
2021/09/08 09:27:54;;;;;;;14.70;8.40;;;;;;;19.50;69.27;101530.67;1711313;82;25527;-79
2021/09/08 09:30:25;;;;;;;14.83;8.38;;;;;;;19.58;69.77;101529.86;1730877;82;26192;-79
2021/09/08 09:32:54;;;;;;;13.08;8.48;;;;;;;19.70;69.41;101525.87;1706045;82;27483;-79
2021/09/08 09:35:27;;;;;;;9.75;7.60;;;;;;;19.79;68.97;101521.81;1657121;82;25821;-79
2021/09/08 09:37:57;;;;;;;11.78;6.42;;;;;;;19.86;67.39;101525.30;1729867;82;25846;-78
2021/09/08 09:40:27;;;;;;;11.17;7.37;;;;;;;19.94;65.99;101517.68;1731683;82;25784;-79
2021/09/08 09:42:55;;;;;;;11.38;7.47;;;;;;;20.01;66.05;101523.05;1704400;82;25741;-79
2021/09/08 09:45:22;;;;;;;13.53;7.15;;;;;;;20.06;65.17;101516.38;1684279;83;27929;-78
2021/09/08 09:47:49;;;;;;;12.35;8.63;;;;;;;20.12;65.41;101514.14;1731809;82;25749;-79
2021/09/08 09:50:20;;;;;;;12.50;8.50;;;;;;;20.21;64.36;101513.34;1731750;82;25770;-79
2021/09/08 09:52:54;;;;;;;11.75;8.20;;;;;;;20.25;63.67;101515.34;1682927;82;25829;-78
2021/09/08 09:55:24;;;;;;;11.22;7.35;;;;;;;20.28;62.78;101511.34;1655971;82;25349;-79
2021/09/08 09:57:52;;;;;;;15.35;8.03;;;;;;;20.31;62.02;101509.54;1731762;82;28326;-79
2021/09/08 10:00:20;;;;;;;11.45;7.72;;;;;;;20.35;62.07;101503.42;1699935;82;25812;-79
2021/09/08 10:02:48;;;;;;;13.30;8.20;;;;;;;20.40;61.97;101504.09;1630798;83;26593;-78
2021/09/08 10:05:15;;;;;;;14.65;9.20;;;;;;;20.44;61.89;101501.21;1691593;82;26621;-78
2021/09/08 10:07:43;;;;;;;15.60;8.63;;;;;;;20.50;61.74;101503.01;1732055;82;25914;-78
2021/09/08 10:10:20;;;;;;;12.50;8.93;;;;;;;20.55;61.55;101498.52;1704610;82;28198;-78
2021/09/08 10:13:10;;;;;;;16.97;8.80;;;;;;;20.63;61.55;101495.50;1726729;82;26041;-79
2021/09/08 10:15:37;;;;;;;16.05;10.00;;;;;;;20.71;61.83;101497.05;1685666;83;25739;-78
2021/09/08 10:18:10;;;;;;;12.90;8.28;;;;;;;20.80;61.11;101496.20;1706415;82;25585;-79
2021/09/08 10:20:37;;;;;;;17.00;8.63;;;;;;;20.85;61.16;101492.25;1731781;82;25828;-78
2021/09/08 10:23:10;;;;;;;13.80;8.88;;;;;;;20.88;60.57;101489.05;1687286;82;27479;-78
2021/09/08 10:25:49;;;;;;;13.35;8.38;;;;;;;20.92;60.65;101492.97;1770815;79;25938;-78
2021/09/08 10:28:19;;;;;;;14.63;8.50;;;;;;;20.96;59.82;101495.52;1758643;80;26567;-79
2021/09/08 10:30:47;;;;;;;14.65;8.78;;;;;;;20.98;59.71;101494.23;1753621;80;26465;-79
2021/09/08 10:33:15;;;;;;;13.60;8.53;;;;;;;21.05;60.47;101488.70;1675803;80;26448;-78
2021/09/08 10:35:42;;;;;;;18.37;9.83;;;;;;;21.13;60.69;101490.56;1720265;80;28028;-78
2021/09/08 10:38:19;;;;;;;11.85;8.50;;;;;;;21.21;59.47;101491.57;1726012;80;25852;-79
2021/09/08 10:40:49;;;;;;;15.65;9.40;;;;;;;21.28;59.51;101490.94;1757330;80;25870;-78
2021/09/08 10:43:29;;;;;;;13.30;8.73;;;;;;;21.33;59.35;101491.08;1716353;80;25795;-78
2021/09/08 10:45:56;;;;;;;15.83;8.43;;;;;;;21.37;59.38;101484.08;1718672;80;25871;-79
2021/09/08 10:48:43;;;;;;;12.10;8.83;;;;;;;21.40;59.00;101483.63;1757881;80;27298;-78
2021/09/08 10:51:43;;;;;;;19.80;10.03;;;;;;;21.46;58.61;101479.11;1753786;80;25594;-78
2021/09/08 10:54:09;;;;;;;13.18;9.30;;;;;;;21.53;58.65;101478.98;1678463;84;25679;-79
2021/09/08 10:56:42;;;;;;;13.70;9.65;;;;;;;21.60;59.08;101472.33;1661219;83;26118;-79
2021/09/08 10:59:08;;;;;;;15.45;10.32;;;;;;;21.68;59.35;101467.91;1716259;83;25753;-78
2021/09/08 11:01:35;;;;;;;17.95;12.80;;;;;;;21.78;58.58;101467.28;1745645;80;27537;-78
2021/09/08 11:04:03;;;;;;;16.42;11.12;;;;;;;21.85;57.72;101470.23;1666256;83;25995;-79
2021/09/08 11:06:40;;;;;;;12.30;9.95;;;;;;;21.86;57.03;101464.22;1684719;83;25862;-79
2021/09/08 11:09:11;;;;;;;15.25;10.80;;;;;;;21.87;57.20;101469.98;1736170;82;25514;-79
2021/09/08 11:11:57;;;;;;;13.32;10.28;;;;;;;21.91;57.49;101471.16;1736701;82;25589;-78
2021/09/08 11:14:47;;;;;;;15.83;11.10;;;;;;;21.96;55.80;101465.26;1737122;81;27592;-79
2021/09/08 11:17:26;;;;;;;14.45;10.03;;;;;;;22.02;57.39;101462.95;1676149;82;25732;-78
2021/09/08 11:19:57;;;;;;;14.68;9.63;;;;;;;22.12;57.14;101460.43;1732070;80;26462;-79
2021/09/08 11:22:24;;;;;;;12.43;8.70;;;;;;;22.18;56.72;101458.09;1755483;80;25791;-78
2021/09/08 11:25:08;;;;;;;16.07;9.30;;;;;;;22.21;57.18;101454.89;1673688;80;25935;-78